sensor_id;sensor_type;location;lat;lon;timestamp;P1;durP1;ratioP1;P2;durP2;ratioP2
50968;SDS011;36982;51.474;7.228;2022-11-06T00:01:04;4.67;;;3.03;;
50968;SDS011;36982;51.474;7.228;2022-11-06T00:03:30;6.33;;;3.30;;
50968;SDS011;36982;51.474;7.228;2022-11-06T00:05:56;6.70;;;2.93;;
50968;SDS011;36982;51.474;7.228;2022-11-06T00:08:40;6.73;;;2.87;;
50968;SDS011;36982;51.474;7.228;2022-11-06T00:11:13;5.60;;;3.67;;
50968;SDS011;36982;51.474;7.228;2022-11-06T00:13:41;4.00;;;2.97;;
50968;SDS011;36982;51.474;7.228;2022-11-06T00:16:08;4.43;;;2.50;;
50968;SDS011;36982;51.474;7.228;2022-11-06T00:18:35;5.70;;;2.63;;
50968;SDS011;36982;51.474;7.228;2022-11-06T00:23:52;5.30;;;2.77;;
50968;SDS011;36982;51.474;7.228;2022-11-06T00:26:20;5.83;;;2.70;;
50968;SDS011;36982;51.474;7.228;2022-11-06T00:28:48;4.77;;;3.07;;
50968;SDS011;36982;51.474;7.228;2022-11-06T00:31:17;5.43;;;2.77;;
50968;SDS011;36982;51.474;7.228;2022-11-06T00:33:45;5.57;;;2.93;;
50968;SDS011;36982;51.474;7.228;2022-11-06T00:36:12;4.83;;;2.70;;
50968;SDS011;36982;51.474;7.228;2022-11-06T00:38:39;5.13;;;2.40;;
50968;SDS011;36982;51.474;7.228;2022-11-06T00:41:09;4.27;;;2.60;;
50968;SDS011;36982;51.474;7.228;2022-11-06T00:43:36;4.93;;;3.00;;
50968;SDS011;36982;51.474;7.228;2022-11-06T00:46:02;5.40;;;2.87;;
50968;SDS011;36982;51.474;7.228;2022-11-06T00:48:33;7.00;;;2.63;;
50968;SDS011;36982;51.474;7.228;2022-11-06T00:51:03;5.93;;;2.70;;
50968;SDS011;36982;51.474;7.228;2022-11-06T00:53:30;4.57;;;2.77;;
50968;SDS011;36982;51.474;7.228;2022-11-06T00:56:02;5.23;;;2.23;;
50968;SDS011;36982;51.474;7.228;2022-11-06T00:58:29;4.17;;;2.50;;
50968;SDS011;36982;51.474;7.228;2022-11-06T01:00:54;6.70;;;2.47;;
50968;SDS011;36982;51.474;7.228;2022-11-06T01:03:20;4.53;;;2.47;;
50968;SDS011;36982;51.474;7.228;2022-11-06T01:05:45;4.87;;;2.70;;
50968;SDS011;36982;51.474;7.228;2022-11-06T01:08:11;5.73;;;2.60;;
50968;SDS011;36982;51.474;7.228;2022-11-06T01:10:36;5.67;;;2.43;;
50968;SDS011;36982;51.474;7.228;2022-11-06T01:13:02;7.40;;;2.87;;
50968;SDS011;36982;51.474;7.228;2022-11-06T01:15:28;6.50;;;2.37;;
50968;SDS011;36982;51.474;7.228;2022-11-06T01:17:53;3.97;;;2.37;;
50968;SDS011;36982;51.474;7.228;2022-11-06T01:20:19;4.07;;;2.43;;
50968;SDS011;36982;51.474;7.228;2022-11-06T01:22:44;6.43;;;2.10;;
50968;SDS011;36982;51.474;7.228;2022-11-06T01:25:10;4.83;;;2.27;;
50968;SDS011;36982;51.474;7.228;2022-11-06T01:27:35;4.40;;;2.10;;
50968;SDS011;36982;51.474;7.228;2022-11-06T01:30:01;4.13;;;2.20;;
50968;SDS011;36982;51.474;7.228;2022-11-06T01:32:27;3.73;;;2.10;;
50968;SDS011;36982;51.474;7.228;2022-11-06T01:34:52;5.53;;;1.87;;
50968;SDS011;36982;51.474;7.228;2022-11-06T01:37:18;4.13;;;1.77;;
50968;SDS011;36982;51.474;7.228;2022-11-06T01:39:43;3.83;;;1.90;;
50968;SDS011;36982;51.474;7.228;2022-11-06T01:42:10;4.03;;;2.00;;
50968;SDS011;36982;51.474;7.228;2022-11-06T01:49:55;5.97;;;2.00;;
50968;SDS011;36982;51.474;7.228;2022-11-06T01:52:24;4.57;;;2.00;;
50968;SDS011;36982;51.474;7.228;2022-11-06T01:54:53;5.53;;;1.80;;
50968;SDS011;36982;51.474;7.228;2022-11-06T01:57:21;4.60;;;1.90;;
50968;SDS011;36982;51.474;7.228;2022-11-06T01:59:47;5.57;;;1.90;;
50968;SDS011;36982;51.474;7.228;2022-11-06T02:02:15;6.70;;;1.93;;
50968;SDS011;36982;51.474;7.228;2022-11-06T02:04:43;4.83;;;1.90;;
50968;SDS011;36982;51.474;7.228;2022-11-06T02:07:10;6.40;;;1.87;;
50968;SDS011;36982;51.474;7.228;2022-11-06T02:09:36;5.73;;;2.10;;
50968;SDS011;36982;51.474;7.228;2022-11-06T02:15:04;5.77;;;2.03;;
50968;SDS011;36982;51.474;7.228;2022-11-06T02:23:56;2.87;;;1.83;;
50968;SDS011;36982;51.474;7.228;2022-11-06T02:26:50;4.60;;;1.93;;
50968;SDS011;36982;51.474;7.228;2022-11-06T02:35:02;4.73;;;1.80;;
50968;SDS011;36982;51.474;7.228;2022-11-06T02:37:51;3.40;;;1.90;;
50968;SDS011;36982;51.474;7.228;2022-11-06T02:40:21;7.27;;;2.73;;
50968;SDS011;36982;51.474;7.228;2022-11-06T02:42:49;5.17;;;1.70;;
50968;SDS011;36982;51.474;7.228;2022-11-06T02:45:18;4.63;;;1.40;;
50968;SDS011;36982;51.474;7.228;2022-11-06T02:47:47;3.17;;;1.70;;
50968;SDS011;36982;51.474;7.228;2022-11-06T02:50:20;6.67;;;2.10;;
50968;SDS011;36982;51.474;7.228;2022-11-06T02:52:55;4.23;;;1.87;;
50968;SDS011;36982;51.474;7.228;2022-11-06T02:56:08;4.67;;;1.90;;
50968;SDS011;36982;51.474;7.228;2022-11-06T02:58:18;5.20;;;1.87;;
50968;SDS011;36982;51.474;7.228;2022-11-06T03:00:52;4.60;;;1.50;;
50968;SDS011;36982;51.474;7.228;2022-11-06T03:03:25;3.83;;;1.83;;
50968;SDS011;36982;51.474;7.228;2022-11-06T03:06:01;3.30;;;1.50;;
50968;SDS011;36982;51.474;7.228;2022-11-06T03:08:37;3.37;;;1.63;;
50968;SDS011;36982;51.474;7.228;2022-11-06T03:11:26;4.10;;;1.87;;
50968;SDS011;36982;51.474;7.228;2022-11-06T03:14:06;3.30;;;1.80;;
50968;SDS011;36982;51.474;7.228;2022-11-06T03:25:13;6.60;;;1.70;;
50968;SDS011;36982;51.474;7.228;2022-11-06T03:28:05;3.50;;;1.30;;
50968;SDS011;36982;51.474;7.228;2022-11-06T03:30:39;3.47;;;1.60;;
50968;SDS011;36982;51.474;7.228;2022-11-06T03:33:35;2.43;;;1.40;;
50968;SDS011;36982;51.474;7.228;2022-11-06T03:36:11;3.93;;;1.70;;
50968;SDS011;36982;51.474;7.228;2022-11-06T03:38:44;5.50;;;1.63;;
50968;SDS011;36982;51.474;7.228;2022-11-06T03:41:17;3.47;;;1.60;;
50968;SDS011;36982;51.474;7.228;2022-11-06T03:43:48;3.80;;;1.67;;
50968;SDS011;36982;51.474;7.228;2022-11-06T03:46:17;4.63;;;1.30;;
50968;SDS011;36982;51.474;7.228;2022-11-06T03:48:47;3.77;;;1.70;;
50968;SDS011;36982;51.474;7.228;2022-11-06T03:54:11;4.17;;;1.50;;
50968;SDS011;36982;51.474;7.228;2022-11-06T03:56:59;9.00;;;1.70;;
50968;SDS011;36982;51.474;7.228;2022-11-06T03:59:33;3.20;;;1.30;;
50968;SDS011;36982;51.474;7.228;2022-11-06T04:02:03;2.17;;;1.30;;
50968;SDS011;36982;51.474;7.228;2022-11-06T04:04:40;5.47;;;1.60;;
50968;SDS011;36982;51.474;7.228;2022-11-06T04:07:29;3.63;;;1.37;;
50968;SDS011;36982;51.474;7.228;2022-11-06T04:09:59;7.87;;;1.60;;
50968;SDS011;36982;51.474;7.228;2022-11-06T04:12:46;4.17;;;1.60;;
50968;SDS011;36982;51.474;7.228;2022-11-06T04:15:35;5.00;;;1.73;;
50968;SDS011;36982;51.474;7.228;2022-11-06T04:18:11;5.30;;;1.47;;
50968;SDS011;36982;51.474;7.228;2022-11-06T04:20:41;4.77;;;1.53;;
50968;SDS011;36982;51.474;7.228;2022-11-06T04:29:31;6.63;;;1.60;;
50968;SDS011;36982;51.474;7.228;2022-11-06T04:35:15;3.67;;;1.47;;
50968;SDS011;36982;51.474;7.228;2022-11-06T04:37:52;4.17;;;1.20;;
50968;SDS011;36982;51.474;7.228;2022-11-06T04:41:05;2.13;;;1.80;;
50968;SDS011;36982;51.474;7.228;2022-11-06T04:43:50;3.40;;;1.40;;
50968;SDS011;36982;51.474;7.228;2022-11-06T04:46:19;4.17;;;1.40;;
50968;SDS011;36982;51.474;7.228;2022-11-06T04:48:48;5.80;;;1.53;;
50968;SDS011;36982;51.474;7.228;2022-11-06T04:51:15;5.07;;;1.43;;
50968;SDS011;36982;51.474;7.228;2022-11-06T04:53:49;5.23;;;1.57;;
50968;SDS011;36982;51.474;7.228;2022-11-06T04:56:20;4.60;;;1.57;;
50968;SDS011;36982;51.474;7.228;2022-11-06T04:58:52;4.30;;;1.30;;
50968;SDS011;36982;51.474;7.228;2022-11-06T05:01:18;2.97;;;1.20;;
50968;SDS011;36982;51.474;7.228;2022-11-06T05:03:43;2.90;;;1.60;;
50968;SDS011;36982;51.474;7.228;2022-11-06T05:06:09;2.37;;;1.33;;
50968;SDS011;36982;51.474;7.228;2022-11-06T05:08:34;3.40;;;1.20;;
50968;SDS011;36982;51.474;7.228;2022-11-06T05:11:00;3.40;;;1.43;;
50968;SDS011;36982;51.474;7.228;2022-11-06T05:13:25;4.73;;;1.50;;
50968;SDS011;36982;51.474;7.228;2022-11-06T05:15:54;4.40;;;1.70;;
50968;SDS011;36982;51.474;7.228;2022-11-06T05:18:21;6.60;;;1.67;;
50968;SDS011;36982;51.474;7.228;2022-11-06T05:20:47;3.73;;;1.33;;
50968;SDS011;36982;51.474;7.228;2022-11-06T05:23:13;2.27;;;1.10;;
50968;SDS011;36982;51.474;7.228;2022-11-06T05:25:39;6.63;;;1.80;;
50968;SDS011;36982;51.474;7.228;2022-11-06T05:28:06;3.53;;;1.53;;
50968;SDS011;36982;51.474;7.228;2022-11-06T05:30:34;4.07;;;1.70;;
50968;SDS011;36982;51.474;7.228;2022-11-06T05:33:00;2.50;;;1.27;;
50968;SDS011;36982;51.474;7.228;2022-11-06T05:35:27;4.97;;;1.60;;
50968;SDS011;36982;51.474;7.228;2022-11-06T05:37:59;2.73;;;1.40;;
50968;SDS011;36982;51.474;7.228;2022-11-06T05:40:25;6.70;;;1.40;;
50968;SDS011;36982;51.474;7.228;2022-11-06T05:42:51;2.80;;;1.20;;
50968;SDS011;36982;51.474;7.228;2022-11-06T05:45:16;3.63;;;1.50;;
50968;SDS011;36982;51.474;7.228;2022-11-06T05:47:42;3.27;;;1.50;;
50968;SDS011;36982;51.474;7.228;2022-11-06T05:50:08;4.77;;;1.60;;
50968;SDS011;36982;51.474;7.228;2022-11-06T05:52:34;4.53;;;1.70;;
50968;SDS011;36982;51.474;7.228;2022-11-06T05:55:00;3.97;;;1.37;;
50968;SDS011;36982;51.474;7.228;2022-11-06T05:57:25;3.43;;;1.33;;
50968;SDS011;36982;51.474;7.228;2022-11-06T05:59:51;5.53;;;1.60;;
50968;SDS011;36982;51.474;7.228;2022-11-06T06:02:17;2.90;;;1.30;;
50968;SDS011;36982;51.474;7.228;2022-11-06T06:04:42;5.53;;;1.53;;
50968;SDS011;36982;51.474;7.228;2022-11-06T06:07:08;4.03;;;1.30;;
50968;SDS011;36982;51.474;7.228;2022-11-06T06:09:33;3.67;;;1.47;;
50968;SDS011;36982;51.474;7.228;2022-11-06T06:11:59;4.27;;;1.70;;
50968;SDS011;36982;51.474;7.228;2022-11-06T06:14:25;5.10;;;1.27;;
50968;SDS011;36982;51.474;7.228;2022-11-06T06:16:50;4.77;;;1.57;;
50968;SDS011;36982;51.474;7.228;2022-11-06T06:19:16;4.97;;;1.70;;
50968;SDS011;36982;51.474;7.228;2022-11-06T06:21:41;5.77;;;1.60;;
50968;SDS011;36982;51.474;7.228;2022-11-06T06:24:07;4.80;;;1.27;;
50968;SDS011;36982;51.474;7.228;2022-11-06T06:26:33;4.07;;;1.20;;
50968;SDS011;36982;51.474;7.228;2022-11-06T06:28:58;3.20;;;1.37;;
50968;SDS011;36982;51.474;7.228;2022-11-06T06:31:26;6.50;;;1.40;;
50968;SDS011;36982;51.474;7.228;2022-11-06T06:33:52;3.27;;;1.30;;
50968;SDS011;36982;51.474;7.228;2022-11-06T06:36:17;5.70;;;1.27;;
50968;SDS011;36982;51.474;7.228;2022-11-06T06:38:43;5.67;;;1.57;;
50968;SDS011;36982;51.474;7.228;2022-11-06T06:41:09;3.50;;;1.37;;
50968;SDS011;36982;51.474;7.228;2022-11-06T06:43:34;3.97;;;1.47;;
50968;SDS011;36982;51.474;7.228;2022-11-06T06:46:05;3.23;;;1.23;;
50968;SDS011;36982;51.474;7.228;2022-11-06T06:48:31;5.07;;;1.20;;
50968;SDS011;36982;51.474;7.228;2022-11-06T06:50:57;5.83;;;1.40;;
50968;SDS011;36982;51.474;7.228;2022-11-06T06:53:24;4.63;;;1.60;;
50968;SDS011;36982;51.474;7.228;2022-11-06T06:55:50;6.00;;;1.33;;
50968;SDS011;36982;51.474;7.228;2022-11-06T06:58:15;4.47;;;1.80;;
50968;SDS011;36982;51.474;7.228;2022-11-06T07:00:41;4.53;;;2.20;;
50968;SDS011;36982;51.474;7.228;2022-11-06T07:03:06;4.03;;;1.50;;
50968;SDS011;36982;51.474;7.228;2022-11-06T07:05:33;3.97;;;1.30;;
50968;SDS011;36982;51.474;7.228;2022-11-06T07:07:58;7.10;;;1.90;;
50968;SDS011;36982;51.474;7.228;2022-11-06T07:10:24;4.70;;;1.93;;
50968;SDS011;36982;51.474;7.228;2022-11-06T07:12:49;5.20;;;1.40;;
50968;SDS011;36982;51.474;7.228;2022-11-06T07:15:15;3.60;;;1.40;;
50968;SDS011;36982;51.474;7.228;2022-11-06T07:17:41;3.33;;;1.77;;
50968;SDS011;36982;51.474;7.228;2022-11-06T07:20:07;4.23;;;1.30;;
50968;SDS011;36982;51.474;7.228;2022-11-06T07:22:33;3.87;;;1.43;;
50968;SDS011;36982;51.474;7.228;2022-11-06T07:24:59;3.43;;;1.37;;
50968;SDS011;36982;51.474;7.228;2022-11-06T07:27:24;3.47;;;1.23;;
50968;SDS011;36982;51.474;7.228;2022-11-06T07:29:50;7.37;;;1.30;;
50968;SDS011;36982;51.474;7.228;2022-11-06T07:32:16;3.00;;;1.30;;
50968;SDS011;36982;51.474;7.228;2022-11-06T07:34:41;6.10;;;1.23;;
50968;SDS011;36982;51.474;7.228;2022-11-06T07:37:07;3.90;;;1.23;;
50968;SDS011;36982;51.474;7.228;2022-11-06T07:39:33;5.87;;;1.50;;
50968;SDS011;36982;51.474;7.228;2022-11-06T07:41:58;3.17;;;1.20;;
50968;SDS011;36982;51.474;7.228;2022-11-06T07:44:24;3.00;;;1.33;;
50968;SDS011;36982;51.474;7.228;2022-11-06T07:46:49;5.73;;;1.40;;
50968;SDS011;36982;51.474;7.228;2022-11-06T07:49:15;5.50;;;1.30;;
50968;SDS011;36982;51.474;7.228;2022-11-06T07:51:41;2.20;;;1.13;;
50968;SDS011;36982;51.474;7.228;2022-11-06T07:54:07;3.93;;;1.30;;
50968;SDS011;36982;51.474;7.228;2022-11-06T07:56:35;5.13;;;1.60;;
50968;SDS011;36982;51.474;7.228;2022-11-06T07:59:00;4.27;;;1.20;;
50968;SDS011;36982;51.474;7.228;2022-11-06T08:01:26;4.53;;;1.67;;
50968;SDS011;36982;51.474;7.228;2022-11-06T08:03:51;3.77;;;1.00;;
50968;SDS011;36982;51.474;7.228;2022-11-06T08:06:17;3.53;;;1.30;;
50968;SDS011;36982;51.474;7.228;2022-11-06T08:08:42;4.17;;;1.40;;
50968;SDS011;36982;51.474;7.228;2022-11-06T08:11:09;5.37;;;1.43;;
50968;SDS011;36982;51.474;7.228;2022-11-06T08:13:35;3.97;;;1.60;;
50968;SDS011;36982;51.474;7.228;2022-11-06T08:16:02;2.87;;;1.47;;
50968;SDS011;36982;51.474;7.228;2022-11-06T08:18:32;5.30;;;1.50;;
50968;SDS011;36982;51.474;7.228;2022-11-06T08:20:58;2.87;;;1.33;;
50968;SDS011;36982;51.474;7.228;2022-11-06T08:23:23;2.87;;;1.30;;
50968;SDS011;36982;51.474;7.228;2022-11-06T08:25:52;3.47;;;1.40;;
50968;SDS011;36982;51.474;7.228;2022-11-06T08:28:22;5.00;;;1.40;;
50968;SDS011;36982;51.474;7.228;2022-11-06T08:30:48;3.17;;;1.20;;
50968;SDS011;36982;51.474;7.228;2022-11-06T08:33:14;2.63;;;1.30;;
50968;SDS011;36982;51.474;7.228;2022-11-06T08:35:51;4.53;;;2.03;;
50968;SDS011;36982;51.474;7.228;2022-11-06T08:38:17;8.30;;;1.97;;
50968;SDS011;36982;51.474;7.228;2022-11-06T08:40:43;4.77;;;1.67;;
50968;SDS011;36982;51.474;7.228;2022-11-06T08:43:09;6.27;;;1.70;;
50968;SDS011;36982;51.474;7.228;2022-11-06T08:45:36;2.67;;;1.40;;
50968;SDS011;36982;51.474;7.228;2022-11-06T08:48:03;4.13;;;1.30;;
50968;SDS011;36982;51.474;7.228;2022-11-06T08:50:30;3.83;;;1.40;;
50968;SDS011;36982;51.474;7.228;2022-11-06T08:52:57;4.37;;;1.60;;
50968;SDS011;36982;51.474;7.228;2022-11-06T08:55:24;4.13;;;1.60;;
50968;SDS011;36982;51.474;7.228;2022-11-06T08:57:52;3.93;;;1.60;;
50968;SDS011;36982;51.474;7.228;2022-11-06T09:00:18;3.37;;;1.33;;
50968;SDS011;36982;51.474;7.228;2022-11-06T09:02:44;3.80;;;1.43;;
50968;SDS011;36982;51.474;7.228;2022-11-06T09:05:10;6.77;;;1.67;;
50968;SDS011;36982;51.474;7.228;2022-11-06T09:07:35;5.47;;;1.63;;
50968;SDS011;36982;51.474;7.228;2022-11-06T09:10:01;4.57;;;1.80;;
50968;SDS011;36982;51.474;7.228;2022-11-06T09:12:27;4.03;;;2.13;;
50968;SDS011;36982;51.474;7.228;2022-11-06T09:14:53;5.10;;;1.80;;
50968;SDS011;36982;51.474;7.228;2022-11-06T09:17:18;4.03;;;1.53;;
50968;SDS011;36982;51.474;7.228;2022-11-06T09:19:48;3.03;;;1.63;;
50968;SDS011;36982;51.474;7.228;2022-11-06T09:22:16;5.53;;;1.40;;
50968;SDS011;36982;51.474;7.228;2022-11-06T09:24:42;11.90;;;1.50;;
50968;SDS011;36982;51.474;7.228;2022-11-06T09:27:08;4.57;;;1.27;;
50968;SDS011;36982;51.474;7.228;2022-11-06T09:29:34;2.70;;;1.27;;
50968;SDS011;36982;51.474;7.228;2022-11-06T09:31:59;3.43;;;1.40;;
50968;SDS011;36982;51.474;7.228;2022-11-06T09:34:25;3.57;;;1.40;;
50968;SDS011;36982;51.474;7.228;2022-11-06T09:36:50;4.33;;;1.20;;
50968;SDS011;36982;51.474;7.228;2022-11-06T09:39:16;2.90;;;1.30;;
50968;SDS011;36982;51.474;7.228;2022-11-06T09:41:47;4.30;;;1.80;;
50968;SDS011;36982;51.474;7.228;2022-11-06T09:44:39;1.87;;;1.10;;
50968;SDS011;36982;51.474;7.228;2022-11-06T09:47:15;3.77;;;1.20;;
50968;SDS011;36982;51.474;7.228;2022-11-06T09:49:51;3.73;;;1.40;;
50968;SDS011;36982;51.474;7.228;2022-11-06T09:55:10;3.30;;;1.50;;
50968;SDS011;36982;51.474;7.228;2022-11-06T09:57:58;5.63;;;1.80;;
50968;SDS011;36982;51.474;7.228;2022-11-06T10:00:27;3.53;;;1.50;;
50968;SDS011;36982;51.474;7.228;2022-11-06T10:02:54;3.90;;;1.30;;
50968;SDS011;36982;51.474;7.228;2022-11-06T10:05:25;3.37;;;1.63;;
50968;SDS011;36982;51.474;7.228;2022-11-06T10:07:59;3.60;;;1.23;;
50968;SDS011;36982;51.474;7.228;2022-11-06T10:16:36;4.87;;;1.20;;
50968;SDS011;36982;51.474;7.228;2022-11-06T10:22:20;2.37;;;1.60;;
50968;SDS011;36982;51.474;7.228;2022-11-06T10:28:33;3.57;;;1.40;;
50968;SDS011;36982;51.474;7.228;2022-11-06T10:33:59;4.87;;;1.63;;
50968;SDS011;36982;51.474;7.228;2022-11-06T10:36:30;5.60;;;1.50;;
50968;SDS011;36982;51.474;7.228;2022-11-06T10:38:59;2.63;;;1.37;;
50968;SDS011;36982;51.474;7.228;2022-11-06T10:41:29;3.80;;;1.43;;
50968;SDS011;36982;51.474;7.228;2022-11-06T10:44:01;4.03;;;2.20;;
50968;SDS011;36982;51.474;7.228;2022-11-06T10:46:42;4.67;;;1.50;;
50968;SDS011;36982;51.474;7.228;2022-11-06T10:49:26;3.40;;;1.20;;
50968;SDS011;36982;51.474;7.228;2022-11-06T11:00:20;3.93;;;1.40;;
50968;SDS011;36982;51.474;7.228;2022-11-06T11:02:56;3.40;;;1.37;;
50968;SDS011;36982;51.474;7.228;2022-11-06T11:05:25;3.30;;;1.47;;
50968;SDS011;36982;51.474;7.228;2022-11-06T11:07:58;3.53;;;1.20;;
50968;SDS011;36982;51.474;7.228;2022-11-06T11:13:03;3.37;;;1.40;;
50968;SDS011;36982;51.474;7.228;2022-11-06T11:15:30;5.47;;;1.40;;
50968;SDS011;36982;51.474;7.228;2022-11-06T11:18:17;4.40;;;1.30;;
50968;SDS011;36982;51.474;7.228;2022-11-06T11:20:47;2.03;;;0.90;;
50968;SDS011;36982;51.474;7.228;2022-11-06T11:23:18;4.33;;;1.63;;
50968;SDS011;36982;51.474;7.228;2022-11-06T11:25:49;2.73;;;1.20;;
50968;SDS011;36982;51.474;7.228;2022-11-06T11:30:49;3.87;;;1.57;;
50968;SDS011;36982;51.474;7.228;2022-11-06T11:33:17;4.20;;;1.67;;
50968;SDS011;36982;51.474;7.228;2022-11-06T11:35:46;4.20;;;1.40;;
50968;SDS011;36982;51.474;7.228;2022-11-06T11:38:14;2.67;;;1.20;;
50968;SDS011;36982;51.474;7.228;2022-11-06T11:40:43;1.90;;;1.00;;
50968;SDS011;36982;51.474;7.228;2022-11-06T11:43:22;4.40;;;1.60;;
50968;SDS011;36982;51.474;7.228;2022-11-06T11:46:03;5.80;;;1.90;;
50968;SDS011;36982;51.474;7.228;2022-11-06T11:54:05;3.10;;;1.20;;
50968;SDS011;36982;51.474;7.228;2022-11-06T11:56:44;4.23;;;1.40;;
50968;SDS011;36982;51.474;7.228;2022-11-06T11:59:22;3.10;;;1.67;;
50968;SDS011;36982;51.474;7.228;2022-11-06T12:02:19;5.57;;;1.40;;
50968;SDS011;36982;51.474;7.228;2022-11-06T12:05:00;3.27;;;1.30;;
50968;SDS011;36982;51.474;7.228;2022-11-06T12:07:37;3.17;;;1.60;;
50968;SDS011;36982;51.474;7.228;2022-11-06T12:12:59;4.97;;;2.03;;
50968;SDS011;36982;51.474;7.228;2022-11-06T12:18:04;3.23;;;1.73;;
50968;SDS011;36982;51.474;7.228;2022-11-06T12:20:42;2.77;;;1.50;;
50968;SDS011;36982;51.474;7.228;2022-11-06T12:23:21;5.00;;;1.63;;
50968;SDS011;36982;51.474;7.228;2022-11-06T12:26:06;3.20;;;1.47;;
50968;SDS011;36982;51.474;7.228;2022-11-06T12:28:43;2.67;;;1.30;;
50968;SDS011;36982;51.474;7.228;2022-11-06T12:31:18;3.67;;;1.57;;
50968;SDS011;36982;51.474;7.228;2022-11-06T12:34:15;2.60;;;1.83;;
50968;SDS011;36982;51.474;7.228;2022-11-06T12:36:54;10.73;;;4.30;;
50968;SDS011;36982;51.474;7.228;2022-11-06T12:39:32;2.63;;;1.50;;
50968;SDS011;36982;51.474;7.228;2022-11-06T12:42:03;3.70;;;1.53;;
50968;SDS011;36982;51.474;7.228;2022-11-06T12:44:31;3.70;;;1.33;;
50968;SDS011;36982;51.474;7.228;2022-11-06T13:02:38;4.67;;;1.83;;
50968;SDS011;36982;51.474;7.228;2022-11-06T13:05:14;4.47;;;1.70;;
50968;SDS011;36982;51.474;7.228;2022-11-06T13:10:49;3.70;;;1.50;;
50968;SDS011;36982;51.474;7.228;2022-11-06T13:18:52;4.03;;;1.90;;
50968;SDS011;36982;51.474;7.228;2022-11-06T13:24:09;3.33;;;1.60;;
50968;SDS011;36982;51.474;7.228;2022-11-06T13:26:43;3.67;;;1.40;;
50968;SDS011;36982;51.474;7.228;2022-11-06T13:29:13;3.80;;;1.63;;
50968;SDS011;36982;51.474;7.228;2022-11-06T13:31:43;3.57;;;1.77;;
50968;SDS011;36982;51.474;7.228;2022-11-06T13:34:17;4.57;;;1.60;;
50968;SDS011;36982;51.474;7.228;2022-11-06T13:36:51;6.17;;;1.80;;
50968;SDS011;36982;51.474;7.228;2022-11-06T13:41:53;3.53;;;1.10;;
50968;SDS011;36982;51.474;7.228;2022-11-06T13:44:20;3.20;;;1.47;;
50968;SDS011;36982;51.474;7.228;2022-11-06T13:53:20;4.20;;;1.33;;
50968;SDS011;36982;51.474;7.228;2022-11-06T13:56:04;3.90;;;1.80;;
50968;SDS011;36982;51.474;7.228;2022-11-06T14:06:30;2.07;;;1.37;;
50968;SDS011;36982;51.474;7.228;2022-11-06T14:09:03;1.90;;;1.20;;
50968;SDS011;36982;51.474;7.228;2022-11-06T14:11:53;3.17;;;1.20;;
50968;SDS011;36982;51.474;7.228;2022-11-06T14:19:41;2.20;;;0.90;;
50968;SDS011;36982;51.474;7.228;2022-11-06T14:22:26;2.10;;;1.47;;
50968;SDS011;36982;51.474;7.228;2022-11-06T14:24:56;4.17;;;1.23;;
50968;SDS011;36982;51.474;7.228;2022-11-06T14:29:55;4.70;;;1.57;;
50968;SDS011;36982;51.474;7.228;2022-11-06T14:32:41;4.07;;;1.30;;
50968;SDS011;36982;51.474;7.228;2022-11-06T14:40:57;2.60;;;1.07;;
50968;SDS011;36982;51.474;7.228;2022-11-06T14:48:34;4.23;;;1.67;;
50968;SDS011;36982;51.474;7.228;2022-11-06T14:51:04;2.23;;;1.10;;
50968;SDS011;36982;51.474;7.228;2022-11-06T14:53:33;2.57;;;1.10;;
50968;SDS011;36982;51.474;7.228;2022-11-06T14:58:31;2.37;;;1.33;;
50968;SDS011;36982;51.474;7.228;2022-11-06T15:01:01;2.63;;;1.27;;
50968;SDS011;36982;51.474;7.228;2022-11-06T15:03:45;2.17;;;0.87;;
50968;SDS011;36982;51.474;7.228;2022-11-06T15:11:43;3.60;;;1.20;;
50968;SDS011;36982;51.474;7.228;2022-11-06T15:13:55;2.73;;;1.57;;
50968;SDS011;36982;51.474;7.228;2022-11-06T15:16:25;3.43;;;1.77;;
50968;SDS011;36982;51.474;7.228;2022-11-06T15:19:02;2.00;;;1.40;;
50968;SDS011;36982;51.474;7.228;2022-11-06T15:21:30;2.10;;;1.20;;
50968;SDS011;36982;51.474;7.228;2022-11-06T15:24:05;2.07;;;1.40;;
50968;SDS011;36982;51.474;7.228;2022-11-06T15:29:12;2.90;;;1.27;;
50968;SDS011;36982;51.474;7.228;2022-11-06T15:31:51;2.13;;;1.17;;
50968;SDS011;36982;51.474;7.228;2022-11-06T15:34:22;3.60;;;1.43;;
50968;SDS011;36982;51.474;7.228;2022-11-06T15:36:54;2.27;;;1.40;;
50968;SDS011;36982;51.474;7.228;2022-11-06T15:39:40;2.10;;;1.30;;
50968;SDS011;36982;51.474;7.228;2022-11-06T15:42:15;2.77;;;1.30;;
50968;SDS011;36982;51.474;7.228;2022-11-06T15:44:44;1.93;;;1.30;;
50968;SDS011;36982;51.474;7.228;2022-11-06T15:47:21;2.30;;;1.27;;
50968;SDS011;36982;51.474;7.228;2022-11-06T15:50:03;1.80;;;1.20;;
50968;SDS011;36982;51.474;7.228;2022-11-06T15:58:38;2.87;;;1.50;;
50968;SDS011;36982;51.474;7.228;2022-11-06T16:01:04;2.23;;;1.10;;
50968;SDS011;36982;51.474;7.228;2022-11-06T16:03:32;1.80;;;1.23;;
50968;SDS011;36982;51.474;7.228;2022-11-06T16:06:15;4.13;;;1.30;;
50968;SDS011;36982;51.474;7.228;2022-11-06T16:08:42;3.00;;;1.40;;
50968;SDS011;36982;51.474;7.228;2022-11-06T16:11:15;2.90;;;1.40;;
50968;SDS011;36982;51.474;7.228;2022-11-06T16:13:45;2.57;;;1.40;;
50968;SDS011;36982;51.474;7.228;2022-11-06T16:16:32;2.27;;;1.50;;
50968;SDS011;36982;51.474;7.228;2022-11-06T16:19:02;1.63;;;1.13;;
50968;SDS011;36982;51.474;7.228;2022-11-06T16:21:31;2.33;;;1.40;;
50968;SDS011;36982;51.474;7.228;2022-11-06T16:24:01;2.27;;;1.57;;
50968;SDS011;36982;51.474;7.228;2022-11-06T16:29:07;1.90;;;1.33;;
50968;SDS011;36982;51.474;7.228;2022-11-06T16:31:36;2.53;;;1.30;;
50968;SDS011;36982;51.474;7.228;2022-11-06T16:34:03;2.10;;;1.60;;
50968;SDS011;36982;51.474;7.228;2022-11-06T16:36:48;3.17;;;1.47;;
50968;SDS011;36982;51.474;7.228;2022-11-06T16:42:18;1.67;;;1.50;;
50968;SDS011;36982;51.474;7.228;2022-11-06T16:44:50;3.00;;;1.60;;
50968;SDS011;36982;51.474;7.228;2022-11-06T16:47:36;3.07;;;1.60;;
50968;SDS011;36982;51.474;7.228;2022-11-06T16:50:02;2.47;;;1.80;;
50968;SDS011;36982;51.474;7.228;2022-11-06T16:52:36;2.43;;;1.80;;
50968;SDS011;36982;51.474;7.228;2022-11-06T16:57:41;2.00;;;1.43;;
50968;SDS011;36982;51.474;7.228;2022-11-06T17:00:34;2.33;;;1.60;;
50968;SDS011;36982;51.474;7.228;2022-11-06T17:03:00;3.37;;;1.77;;
50968;SDS011;36982;51.474;7.228;2022-11-06T17:05:32;5.13;;;2.23;;
50968;SDS011;36982;51.474;7.228;2022-11-06T17:08:16;3.97;;;1.87;;
50968;SDS011;36982;51.474;7.228;2022-11-06T17:10:48;2.20;;;1.83;;
50968;SDS011;36982;51.474;7.228;2022-11-06T17:13:18;4.10;;;2.17;;
50968;SDS011;36982;51.474;7.228;2022-11-06T17:15:47;4.57;;;2.70;;
50968;SDS011;36982;51.474;7.228;2022-11-06T17:18:21;4.40;;;1.77;;
50968;SDS011;36982;51.474;7.228;2022-11-06T17:20:50;4.60;;;1.90;;
50968;SDS011;36982;51.474;7.228;2022-11-06T17:23:21;3.83;;;1.70;;
50968;SDS011;36982;51.474;7.228;2022-11-06T17:25:49;3.10;;;1.57;;
50968;SDS011;36982;51.474;7.228;2022-11-06T17:28:25;2.40;;;1.50;;
50968;SDS011;36982;51.474;7.228;2022-11-06T17:30:50;3.03;;;1.30;;
50968;SDS011;36982;51.474;7.228;2022-11-06T17:33:16;3.43;;;1.63;;
50968;SDS011;36982;51.474;7.228;2022-11-06T17:35:41;2.40;;;1.70;;
50968;SDS011;36982;51.474;7.228;2022-11-06T17:38:10;3.00;;;1.33;;
50968;SDS011;36982;51.474;7.228;2022-11-06T17:40:36;3.17;;;1.70;;
50968;SDS011;36982;51.474;7.228;2022-11-06T17:43:02;3.27;;;1.67;;
50968;SDS011;36982;51.474;7.228;2022-11-06T17:45:27;2.93;;;1.50;;
50968;SDS011;36982;51.474;7.228;2022-11-06T17:47:53;3.90;;;1.80;;
50968;SDS011;36982;51.474;7.228;2022-11-06T17:50:19;3.17;;;1.70;;
50968;SDS011;36982;51.474;7.228;2022-11-06T17:52:44;2.30;;;1.60;;
50968;SDS011;36982;51.474;7.228;2022-11-06T17:55:10;2.20;;;1.37;;
50968;SDS011;36982;51.474;7.228;2022-11-06T17:57:36;3.83;;;1.57;;
50968;SDS011;36982;51.474;7.228;2022-11-06T18:00:02;3.53;;;1.73;;
50968;SDS011;36982;51.474;7.228;2022-11-06T18:02:28;2.27;;;1.43;;